createdAt,value
2023-04-22T00:00:18.008Z,39.95
2023-04-22T00:02:45.930Z,39.91
2023-04-22T00:05:15.925Z,39.80
2023-04-22T00:07:45.791Z,39.91
2023-04-22T00:10:13.161Z,39.98
2023-04-22T00:12:40.454Z,40.11
2023-04-22T00:15:08.311Z,40.10
2023-04-22T00:17:35.339Z,40.05
2023-04-22T00:20:02.382Z,40.15
2023-04-22T00:22:31.562Z,40.50
2023-04-22T00:24:58.554Z,40.56
2023-04-22T00:27:25.694Z,40.83
2023-04-22T00:29:52.939Z,40.64
2023-04-22T00:32:22.589Z,41.12
2023-04-22T00:34:50.679Z,40.90
2023-04-22T00:37:18.223Z,40.69
2023-04-22T00:39:45.853Z,40.95
2023-04-22T00:42:13.905Z,40.80
2023-04-22T00:44:41.278Z,40.97
2023-04-22T00:47:10.025Z,41.38
2023-04-22T00:49:37.614Z,41.47
2023-04-22T00:52:04.878Z,41.24
2023-04-22T00:54:33.950Z,41.57
2023-04-22T00:57:01.130Z,41.34
2023-04-22T00:59:28.175Z,41.66
2023-04-22T01:01:56.214Z,41.81
2023-04-22T01:04:23.456Z,41.81
2023-04-22T01:06:52.165Z,41.95
2023-04-22T01:09:21.034Z,42.02
2023-04-22T01:11:48.200Z,41.44
2023-04-22T01:14:15.912Z,41.78
2023-04-22T01:16:44.229Z,42.04
2023-04-22T01:19:11.967Z,42.14
2023-04-22T01:21:40.898Z,42.55
2023-04-22T01:24:09.061Z,42.68
2023-04-22T01:26:37.005Z,42.36
2023-04-22T01:29:05.384Z,42.66
2023-04-22T01:31:33.559Z,42.68
2023-04-22T01:34:00.767Z,43.01
2023-04-22T01:36:28.127Z,43.17
2023-04-22T01:38:55.761Z,42.99
2023-04-22T01:41:22.738Z,43.21
2023-04-22T01:43:50.729Z,43.79
2023-04-22T01:46:18.355Z,43.32
2023-04-22T01:48:50.588Z,43.54
2023-04-22T01:51:20.922Z,43.45
2023-04-22T01:53:48.990Z,44.00
2023-04-22T01:56:16.513Z,44.01
2023-04-22T01:58:43.841Z,43.89
2023-04-22T02:01:12.072Z,43.92
2023-04-22T02:03:39.385Z,44.17
2023-04-22T02:06:06.848Z,43.90
2023-04-22T02:08:33.972Z,43.78
2023-04-22T02:11:01.245Z,44.15
2023-04-22T02:13:39.199Z,44.21
2023-04-22T02:16:08.630Z,44.03
2023-04-22T02:18:36.014Z,43.91
2023-04-22T02:21:03.250Z,43.96
2023-04-22T02:23:30.600Z,44.15
2023-04-22T02:25:57.674Z,44.49
2023-04-22T02:28:25.965Z,44.04
2023-04-22T02:30:53.110Z,44.39
2023-04-22T02:33:21.423Z,44.59
2023-04-22T02:35:48.469Z,44.34
2023-04-22T02:38:19.359Z,44.73
2023-04-22T02:40:47.266Z,44.87
2023-04-22T02:43:15.060Z,44.67
2023-04-22T02:45:42.378Z,44.67
2023-04-22T02:48:10.229Z,44.97
2023-04-22T02:50:37.403Z,45.02
2023-04-22T02:53:04.568Z,44.89
2023-04-22T02:55:31.639Z,44.99
2023-04-22T02:57:58.888Z,45.26
2023-04-22T03:00:26.278Z,45.00
2023-04-22T03:02:54.103Z,45.44
2023-04-22T03:05:25.888Z,45.50
2023-04-22T03:07:53.589Z,45.21
2023-04-22T03:10:21.436Z,45.35
2023-04-22T03:12:49.186Z,45.29
2023-04-22T03:15:19.623Z,45.33
2023-04-22T03:17:49.000Z,45.39
2023-04-22T03:20:17.133Z,45.41
2023-04-22T03:22:44.124Z,45.39
2023-04-22T03:25:13.003Z,45.33
2023-04-22T03:27:41.058Z,45.11
2023-04-22T03:30:08.585Z,45.13
2023-04-22T03:32:35.786Z,45.02
2023-04-22T03:35:15.833Z,44.70
2023-04-22T03:37:43.716Z,44.56
2023-04-22T03:40:13.957Z,44.64
2023-04-22T03:42:43.405Z,44.52
2023-04-22T03:45:11.232Z,44.31
2023-04-22T03:47:43.840Z,43.89
2023-04-22T03:50:20.630Z,43.83
2023-04-22T03:52:49.089Z,43.76
2023-04-22T03:55:19.715Z,43.10
2023-04-22T03:57:48.275Z,42.57
2023-04-22T04:00:15.400Z,41.78
2023-04-22T04:02:45.355Z,41.33
2023-04-22T04:05:16.615Z,41.41
2023-04-22T04:07:44.094Z,41.11
2023-04-22T04:10:11.872Z,41.00
2023-04-22T04:12:38.944Z,40.88
2023-04-22T04:15:07.167Z,40.84
2023-04-22T04:17:35.176Z,40.63
2023-04-22T04:20:04.099Z,40.62
2023-04-22T04:22:32.391Z,40.15
2023-04-22T04:25:01.961Z,39.68
2023-04-22T04:27:39.285Z,39.25
2023-04-22T04:30:07.412Z,37.94
2023-04-22T04:32:39.993Z,37.65
2023-04-22T04:35:10.058Z,37.62
2023-04-22T04:37:40.475Z,37.76
2023-04-22T04:40:12.333Z,38.04
2023-04-22T04:43:02.736Z,38.01
2023-04-22T04:45:39.260Z,37.72
2023-04-22T04:48:08.099Z,37.51
2023-04-22T04:50:37.965Z,37.30
2023-04-22T04:53:07.283Z,37.25
2023-04-22T04:55:39.059Z,36.79
2023-04-22T04:58:12.716Z,36.39
2023-04-22T05:00:40.084Z,36.03
2023-04-22T05:03:08.086Z,35.89
2023-04-22T05:05:35.860Z,35.53
2023-04-22T05:08:03.031Z,35.70
2023-04-22T05:10:31.698Z,35.44
2023-04-22T05:12:58.939Z,35.11
2023-04-22T05:15:26.840Z,34.92
2023-04-22T05:17:54.499Z,34.64
2023-04-22T05:20:21.594Z,34.35
2023-04-22T05:22:48.640Z,34.34
2023-04-22T05:25:16.731Z,34.37
2023-04-22T05:27:53.244Z,34.03
2023-04-22T05:30:20.391Z,33.25
2023-04-22T05:32:48.506Z,33.24
2023-04-22T05:35:15.682Z,32.91
2023-04-22T05:37:42.694Z,32.60
2023-04-22T05:40:10.185Z,32.32
2023-04-22T05:42:37.471Z,31.76
2023-04-22T05:45:04.953Z,30.79
2023-04-22T05:47:33.218Z,30.73
2023-04-22T05:50:00.655Z,30.34
2023-04-22T05:52:34.324Z,30.27
2023-04-22T05:55:09.611Z,29.89
2023-04-22T05:57:36.606Z,29.74
2023-04-22T06:00:09.363Z,28.70
2023-04-22T06:02:40.917Z,28.13
2023-04-22T06:05:09.346Z,28.05
2023-04-22T06:07:36.627Z,28.00
2023-04-22T06:10:07.117Z,27.31
2023-04-22T06:12:35.320Z,26.72
2023-04-22T06:15:02.652Z,24.93
2023-04-22T06:17:32.680Z,23.32
2023-04-22T06:20:03.583Z,22.93
2023-04-22T06:22:31.793Z,21.14
2023-04-22T06:24:58.868Z,19.79
2023-04-22T06:27:26.588Z,19.36
2023-04-22T06:29:53.683Z,19.29
2023-04-22T06:32:20.873Z,18.83
2023-04-22T06:34:47.993Z,18.20
2023-04-22T06:37:15.165Z,18.82
2023-04-22T06:39:42.364Z,19.38
2023-04-22T06:42:48.331Z,20.06
2023-04-22T06:45:45.242Z,20.21
2023-04-22T06:48:30.814Z,20.14
2023-04-22T06:51:36.489Z,20.25
2023-04-22T06:54:04.012Z,20.69
2023-04-22T06:56:31.177Z,20.61
2023-04-22T06:58:58.216Z,20.93
2023-04-22T07:01:26.379Z,20.83
2023-04-22T07:03:53.673Z,20.43
2023-04-22T07:06:21.293Z,20.09
2023-04-22T07:08:49.016Z,19.88
2023-04-22T07:11:16.304Z,19.74
2023-04-22T07:13:52.815Z,20.63
2023-04-22T07:16:20.042Z,21.38
2023-04-22T07:18:47.860Z,22.06
2023-04-22T07:21:15.053Z,22.87
2023-04-22T07:23:42.080Z,23.57
2023-04-22T07:26:09.204Z,22.27
2023-04-22T07:28:36.373Z,21.70
2023-04-22T07:31:03.498Z,20.57
2023-04-22T07:33:30.553Z,20.97
2023-04-22T07:35:57.589Z,21.53
2023-04-22T07:38:25.095Z,21.69
2023-04-22T07:40:52.096Z,22.31
2023-04-22T07:43:19.213Z,22.35
2023-04-22T07:45:46.262Z,22.25
2023-04-22T07:48:13.314Z,21.82
2023-04-22T07:50:40.490Z,22.02
2023-04-22T07:53:07.543Z,22.22
2023-04-22T07:55:34.562Z,22.70
2023-04-22T07:58:06.233Z,22.66
2023-04-22T08:00:36.388Z,22.76
2023-04-22T08:03:04.309Z,22.92
2023-04-22T08:05:31.724Z,23.44
2023-04-22T08:07:58.911Z,23.76
2023-04-22T08:10:26.303Z,23.77
2023-04-22T08:12:53.400Z,24.01
2023-04-22T08:15:20.375Z,24.47
2023-04-22T08:17:47.552Z,24.72
2023-04-22T08:20:15.632Z,24.98
2023-04-22T08:22:45.441Z,25.20
2023-04-22T08:25:13.101Z,24.99
2023-04-22T08:27:40.461Z,25.10
2023-04-22T08:30:07.985Z,25.46
2023-04-22T08:32:35.109Z,25.09
2023-04-22T08:35:05.444Z,25.17
2023-04-22T08:37:34.355Z,25.15
2023-04-22T08:40:01.735Z,25.54
2023-04-22T08:42:31.560Z,25.99
2023-04-22T08:44:58.780Z,26.00
2023-04-22T08:47:26.702Z,26.04
2023-04-22T08:49:55.882Z,26.13
2023-04-22T08:52:22.891Z,25.96
2023-04-22T08:54:50.080Z,26.12
2023-04-22T08:57:18.122Z,26.15
2023-04-22T08:59:45.631Z,26.40
2023-04-22T09:02:19.389Z,25.61
2023-04-22T09:04:51.187Z,24.49
2023-04-22T09:07:27.101Z,23.92
2023-04-22T09:09:56.232Z,23.71
2023-04-22T09:12:24.923Z,23.66
2023-04-22T09:14:52.996Z,23.84
2023-04-22T09:17:31.473Z,24.14
2023-04-22T09:20:00.420Z,24.21
2023-04-22T09:22:42.301Z,24.48
2023-04-22T09:25:20.425Z,24.72
2023-04-22T09:27:55.433Z,24.69
2023-04-22T09:30:37.857Z,24.89
2023-04-22T09:33:08.010Z,25.25
2023-04-22T09:35:37.600Z,25.12
2023-04-22T09:38:08.316Z,25.58
2023-04-22T09:40:36.520Z,25.28
2023-04-22T09:43:06.271Z,24.27
2023-04-22T09:45:34.372Z,23.43
2023-04-22T09:48:12.377Z,20.24
2023-04-22T09:50:41.239Z,20.58
2023-04-22T09:53:10.926Z,20.62
2023-04-22T09:55:41.674Z,20.90
2023-04-22T09:58:13.899Z,20.88
2023-04-22T10:00:49.261Z,21.51
2023-04-22T10:03:17.422Z,21.79
2023-04-22T10:05:46.286Z,22.17
2023-04-22T10:08:15.468Z,22.42
2023-04-22T10:10:43.414Z,22.56
2023-04-22T10:13:10.554Z,22.33
2023-04-22T10:15:50.558Z,22.58
2023-04-22T10:18:26.941Z,22.38
2023-04-22T10:20:56.166Z,22.03
2023-04-22T10:23:24.960Z,21.87
2023-04-22T10:25:56.635Z,21.41
2023-04-22T10:28:27.709Z,21.99
2023-04-22T10:30:55.011Z,22.11
2023-04-22T10:33:23.885Z,22.33
2023-04-22T10:36:15.237Z,22.37
2023-04-22T10:39:02.152Z,22.27
2023-04-22T10:41:30.162Z,22.61
2023-04-22T10:44:01.998Z,22.92
2023-04-22T10:46:35.538Z,23.16
2023-04-22T10:49:12.821Z,23.22
2023-04-22T10:51:44.168Z,23.16
2023-04-22T10:54:31.847Z,25.42
2023-04-22T10:57:03.697Z,23.75
2023-04-22T10:59:32.941Z,23.46
2023-04-22T11:02:07.674Z,23.27
2023-04-22T11:04:35.321Z,23.33
2023-04-22T11:07:20.927Z,22.99
2023-04-22T11:09:51.202Z,22.77
2023-04-22T11:12:39.231Z,22.07
2023-04-22T11:15:07.804Z,22.46
2023-04-22T11:17:36.595Z,22.20
2023-04-22T11:20:05.983Z,21.70
2023-04-22T11:22:37.372Z,21.95
2023-04-22T11:25:05.659Z,22.18
2023-04-22T11:27:33.204Z,22.22
2023-04-22T11:30:16.324Z,22.33
2023-04-22T11:32:58.451Z,22.22
2023-04-22T11:35:35.483Z,22.39
2023-04-22T11:38:03.336Z,22.02
2023-04-22T11:40:33.791Z,22.26
2023-04-22T11:43:04.373Z,21.99
2023-04-22T11:45:34.810Z,21.57
2023-04-22T11:48:03.100Z,21.77
2023-04-22T11:50:33.703Z,21.98
2023-04-22T11:53:02.009Z,21.54
2023-04-22T11:55:34.991Z,21.50
2023-04-22T11:58:09.680Z,21.54
2023-04-22T12:00:41.445Z,21.36
2023-04-22T12:03:16.176Z,21.48
2023-04-22T12:05:45.862Z,21.37
2023-04-22T12:08:14.611Z,21.56
2023-04-22T12:10:57.529Z,21.25
2023-04-22T12:13:46.365Z,21.55
2023-04-22T12:16:15.871Z,21.35
2023-04-22T12:18:54.356Z,21.82
2023-04-22T12:21:24.893Z,21.15
2023-04-22T12:23:59.201Z,21.14
2023-04-22T12:26:27.927Z,21.27
2023-04-22T12:28:57.935Z,21.51
2023-04-22T12:31:25.305Z,21.55
2023-04-22T12:33:53.858Z,21.53
2023-04-22T12:36:21.649Z,21.51
2023-04-22T12:38:49.216Z,21.32
2023-04-22T12:41:16.651Z,21.38
2023-04-22T12:43:43.662Z,21.58
2023-04-22T12:46:11.032Z,21.62
2023-04-22T12:48:38.310Z,21.75
2023-04-22T12:51:06.954Z,21.88
2023-04-22T12:53:34.884Z,21.80
2023-04-22T12:56:02.205Z,22.04
2023-04-22T12:58:29.453Z,22.25
2023-04-22T13:00:56.618Z,21.83
2023-04-22T13:03:24.100Z,21.96
2023-04-22T13:05:52.337Z,21.83
2023-04-22T13:08:19.497Z,21.92
2023-04-22T13:10:46.772Z,21.80
2023-04-22T13:13:18.610Z,21.60
2023-04-22T13:15:54.404Z,21.77
2023-04-22T13:18:23.323Z,21.55
2023-04-22T13:20:51.400Z,21.49
2023-04-22T13:23:21.988Z,21.68
2023-04-22T13:25:56.789Z,21.56
2023-04-22T13:28:23.953Z,21.53
2023-04-22T13:30:51.138Z,21.44
2023-04-22T13:33:18.167Z,21.27
2023-04-22T13:35:45.414Z,20.85
2023-04-22T13:38:12.592Z,21.30
2023-04-22T13:40:39.609Z,21.07
2023-04-22T13:43:09.404Z,21.29
2023-04-22T13:45:36.470Z,21.47
2023-04-22T13:48:03.863Z,22.09
2023-04-22T13:50:30.961Z,21.79
2023-04-22T13:52:58.136Z,21.23
2023-04-22T13:55:26.777Z,21.68
2023-04-22T13:57:53.886Z,21.64
2023-04-22T14:00:21.272Z,21.64
2023-04-22T14:02:48.965Z,21.81
2023-04-22T14:05:16.548Z,21.89
2023-04-22T14:07:43.641Z,21.88
2023-04-22T14:10:12.283Z,21.64
2023-04-22T14:12:40.258Z,21.84
2023-04-22T14:15:11.046Z,21.94
2023-04-22T14:17:39.816Z,22.15
2023-04-22T14:20:08.883Z,22.06
2023-04-22T14:22:35.965Z,22.11
2023-04-22T14:25:03.137Z,22.24
2023-04-22T14:27:31.708Z,22.12
2023-04-22T14:29:59.029Z,22.44
2023-04-22T14:32:26.103Z,22.27
2023-04-22T14:34:53.330Z,22.55
2023-04-22T14:37:21.629Z,22.69
2023-04-22T14:39:48.900Z,22.58
2023-04-22T14:42:18.252Z,22.65
2023-04-22T14:44:45.385Z,22.43
2023-04-22T14:47:12.397Z,22.44
2023-04-22T14:49:39.539Z,22.33
2023-04-22T14:52:07.080Z,22.38
2023-04-22T14:54:34.583Z,22.43
2023-04-22T14:57:02.950Z,22.73
2023-04-22T14:59:30.036Z,22.74
2023-04-22T15:01:57.226Z,23.12
2023-04-22T15:04:24.772Z,22.98
2023-04-22T15:06:53.371Z,23.10
2023-04-22T15:09:20.741Z,23.33
2023-04-22T15:11:47.777Z,23.18
2023-04-22T15:14:16.702Z,23.37
2023-04-22T15:16:44.485Z,23.19
2023-04-22T15:19:11.712Z,23.31
2023-04-22T15:21:39.112Z,23.31
2023-04-22T15:24:06.253Z,23.38
2023-04-22T15:26:34.027Z,23.52
2023-04-22T15:29:01.315Z,23.81
2023-04-22T15:31:28.541Z,23.89
2023-04-22T15:33:55.543Z,23.78
2023-04-22T15:36:22.620Z,23.84
2023-04-22T15:38:55.300Z,23.97
2023-04-22T15:41:24.191Z,24.16
2023-04-22T15:43:52.063Z,24.16
2023-04-22T15:46:19.842Z,24.04
2023-04-22T15:48:48.612Z,23.98
2023-04-22T15:51:16.877Z,24.19
2023-04-22T15:53:46.793Z,24.04
2023-04-22T15:56:15.446Z,24.37
2023-04-22T15:58:42.550Z,24.19
2023-04-22T16:01:18.688Z,24.70
2023-04-22T16:03:50.249Z,24.71
2023-04-22T16:06:18.730Z,24.85
2023-04-22T16:08:46.277Z,24.66
2023-04-22T16:11:15.396Z,24.53
2023-04-22T16:13:42.942Z,24.72
2023-04-22T16:16:10.240Z,24.93
2023-04-22T16:18:38.053Z,24.91
2023-04-22T16:21:06.734Z,25.03
2023-04-22T16:23:34.812Z,25.32
2023-04-22T16:26:02.946Z,25.32
2023-04-22T16:28:30.109Z,25.80
2023-04-22T16:30:57.249Z,26.14
2023-04-22T16:33:25.551Z,26.26
2023-04-22T16:35:52.581Z,26.34
2023-04-22T16:38:19.704Z,26.71
2023-04-22T16:40:46.684Z,26.63
2023-04-22T16:43:13.837Z,26.72
2023-04-22T16:45:41.166Z,26.55
2023-04-22T16:48:08.193Z,27.03
2023-04-22T16:50:35.408Z,26.93
2023-04-22T16:53:02.467Z,27.49
2023-04-22T16:55:29.500Z,27.42
2023-04-22T16:57:58.496Z,27.32
2023-04-22T17:00:25.610Z,27.59
2023-04-22T17:02:52.896Z,27.46
2023-04-22T17:05:20.112Z,27.60
2023-04-22T17:07:47.165Z,27.42
2023-04-22T17:10:14.365Z,27.80
2023-04-22T17:12:41.430Z,27.91
2023-04-22T17:15:08.943Z,28.06
2023-04-22T17:17:36.111Z,28.52
2023-04-22T17:20:03.258Z,28.59
2023-04-22T17:22:31.241Z,28.89
2023-04-22T17:24:58.992Z,29.07
2023-04-22T17:27:26.863Z,29.65
2023-04-22T17:29:53.928Z,29.38
2023-04-22T17:32:21.040Z,29.69
2023-04-22T17:34:48.160Z,29.67
2023-04-22T17:37:15.344Z,29.91
2023-04-22T17:39:42.379Z,30.07
2023-04-22T17:42:09.432Z,30.58
2023-04-22T17:44:36.500Z,30.76
2023-04-22T17:47:05.192Z,30.99
2023-04-22T17:49:33.885Z,31.04
2023-04-22T17:52:01.078Z,31.37
2023-04-22T17:54:28.206Z,31.46
2023-04-22T17:56:55.257Z,31.82
2023-04-22T17:59:22.332Z,32.09
2023-04-22T18:01:49.409Z,32.29
2023-04-22T18:04:16.681Z,32.51
2023-04-22T18:06:43.804Z,32.46
2023-04-22T18:09:10.855Z,32.44
2023-04-22T18:11:37.914Z,32.46
2023-04-22T18:14:05.040Z,32.57
2023-04-22T18:16:32.551Z,32.66
2023-04-22T18:19:02.358Z,33.03
2023-04-22T18:21:29.853Z,32.86
2023-04-22T18:23:56.926Z,33.49
2023-04-22T18:26:24.051Z,33.67
2023-04-22T18:28:51.074Z,33.86
2023-04-22T18:31:18.114Z,34.00
2023-04-22T18:33:45.216Z,34.01
2023-04-22T18:36:12.301Z,34.17
2023-04-22T18:38:39.350Z,34.00
2023-04-22T18:41:06.972Z,34.14
2023-04-22T18:43:34.135Z,34.67
2023-04-22T18:46:01.239Z,35.02
2023-04-22T18:48:28.280Z,34.98
2023-04-22T18:50:55.449Z,35.31
2023-04-22T18:53:22.598Z,35.48
2023-04-22T18:55:49.724Z,35.38
2023-04-22T18:58:16.836Z,35.53
2023-04-22T19:00:43.938Z,35.62
2023-04-22T19:03:11.402Z,35.87
2023-04-22T19:05:39.035Z,35.94
2023-04-22T19:08:06.064Z,36.40
2023-04-22T19:10:33.313Z,36.55
2023-04-22T19:13:00.332Z,37.08
2023-04-22T19:15:27.390Z,37.00
2023-04-22T19:17:54.961Z,37.15
2023-04-22T19:20:22.192Z,37.41
2023-04-22T19:22:49.498Z,37.79
2023-04-22T19:25:18.820Z,37.67
2023-04-22T19:27:47.508Z,37.34
2023-04-22T19:30:15.002Z,37.47
2023-04-22T19:32:42.680Z,37.68
2023-04-22T19:35:12.585Z,37.92
2023-04-22T19:37:39.762Z,38.18
2023-04-22T19:40:07.455Z,38.47
2023-04-22T19:42:34.506Z,38.61
2023-04-22T19:45:01.495Z,38.84
2023-04-22T19:47:31.697Z,38.76
2023-04-22T19:49:59.160Z,39.00
2023-04-22T19:52:27.813Z,39.18
2023-04-22T19:54:58.890Z,39.07
2023-04-22T19:57:26.572Z,39.55
2023-04-22T19:59:54.402Z,39.61
2023-04-22T20:02:23.705Z,39.59
2023-04-22T20:04:50.986Z,39.64
2023-04-22T20:07:19.390Z,39.16
2023-04-22T20:09:46.842Z,39.41
2023-04-22T20:12:14.191Z,39.95
2023-04-22T20:14:41.880Z,39.73
2023-04-22T20:17:09.817Z,39.93
2023-04-22T20:19:37.693Z,39.97
2023-04-22T20:22:06.769Z,40.25
2023-04-22T20:24:38.964Z,40.42
2023-04-22T20:27:06.829Z,40.15
2023-04-22T20:29:36.165Z,40.25
2023-04-22T20:32:05.148Z,40.38
2023-04-22T20:34:36.282Z,40.63
2023-04-22T20:37:06.095Z,40.61
2023-04-22T20:39:34.520Z,41.36
2023-04-22T20:42:03.010Z,41.41
2023-04-22T20:44:30.631Z,41.21
2023-04-22T20:46:58.977Z,41.17
2023-04-22T20:49:26.642Z,41.23
2023-04-22T20:51:54.375Z,41.51
2023-04-22T20:54:28.975Z,41.89
2023-04-22T20:56:57.896Z,41.88
2023-04-22T20:59:25.052Z,41.84
2023-04-22T21:01:53.824Z,42.04
2023-04-22T21:04:23.997Z,42.25
2023-04-22T21:06:52.437Z,42.23
2023-04-22T21:09:24.990Z,42.28
2023-04-22T21:11:53.077Z,42.05
2023-04-22T21:14:22.352Z,42.67
2023-04-22T21:17:05.328Z,42.85
2023-04-22T21:19:34.117Z,42.80
2023-04-22T21:22:05.811Z,42.94
2023-04-22T21:24:35.190Z,43.01
2023-04-22T21:27:03.128Z,42.78
2023-04-22T21:29:30.542Z,43.28
2023-04-22T21:32:07.226Z,43.47
2023-04-22T21:34:36.227Z,43.42
2023-04-22T21:37:04.607Z,43.63
2023-04-22T21:39:31.643Z,43.64
2023-04-22T21:41:58.992Z,43.11
2023-04-22T21:44:26.110Z,43.53
2023-04-22T21:46:53.195Z,43.82
2023-04-22T21:49:20.722Z,43.54
2023-04-22T21:51:48.147Z,43.87
2023-04-22T21:54:15.156Z,43.63
2023-04-22T21:56:42.368Z,43.62
2023-04-22T21:59:09.451Z,43.75
2023-04-22T22:01:36.485Z,44.24
2023-04-22T22:04:03.847Z,44.65
2023-04-22T22:06:31.651Z,44.49
2023-04-22T22:08:58.960Z,44.53
2023-04-22T22:11:30.689Z,44.65
2023-04-22T22:13:58.959Z,44.44
2023-04-22T22:16:26.208Z,44.15
2023-04-22T22:18:53.433Z,44.67
2023-04-22T22:21:20.553Z,44.88
2023-04-22T22:23:47.628Z,45.27
2023-04-22T22:26:14.675Z,45.38
2023-04-22T22:28:41.709Z,44.99
2023-04-22T22:31:08.754Z,45.24
2023-04-22T22:33:35.834Z,45.74
2023-04-22T22:36:02.837Z,45.53
2023-04-22T22:38:29.914Z,45.39
2023-04-22T22:40:56.901Z,45.31
2023-04-22T22:43:23.977Z,45.30
2023-04-22T22:45:51.176Z,45.44
2023-04-22T22:48:18.336Z,45.88
2023-04-22T22:50:46.569Z,45.64
2023-04-22T22:53:13.580Z,45.66
2023-04-22T22:55:40.681Z,46.23
2023-04-22T22:58:07.769Z,46.20
2023-04-22T23:00:34.880Z,45.97
2023-04-22T23:03:02.219Z,46.31
2023-04-22T23:05:29.418Z,46.05
2023-04-22T23:07:56.453Z,46.19
2023-04-22T23:10:23.559Z,46.56
2023-04-22T23:12:50.718Z,46.54
2023-04-22T23:15:17.763Z,46.52
2023-04-22T23:17:45.927Z,46.51
2023-04-22T23:20:14.239Z,46.48
2023-04-22T23:22:43.501Z,46.61
2023-04-22T23:25:12.225Z,46.52
2023-04-22T23:27:39.488Z,46.87
2023-04-22T23:30:08.187Z,47.07
2023-04-22T23:32:39.147Z,47.15
2023-04-22T23:35:08.519Z,47.18
2023-04-22T23:37:37.856Z,47.31
2023-04-22T23:40:06.851Z,47.42
2023-04-22T23:42:33.904Z,47.42
2023-04-22T23:45:00.990Z,47.02
2023-04-22T23:47:28.420Z,46.99
2023-04-22T23:49:55.931Z,47.12
2023-04-22T23:52:23.682Z,47.23
2023-04-22T23:54:51.922Z,47.38
2023-04-22T23:57:19.231Z,47.35
2023-04-22T23:59:46.785Z,47.62
